Time;durP1;ratioP1;P1;durP2;ratioP2;P2;SDS_P1;SDS_P2;PMS_P1;PMS_P2;Temp;Humidity;BMP_temperature;BMP_pressure;BME280_temperature;BME280_humidity;BME280_pressure;Samples;Min_cycle;Max_cycle;Signal;HPM_P1;HPM_P2
2023/12/26 00:10:57;;;;;;;77.27;52.10;;;8.40;99.90;;;;;;6143133;22;20008;-69
2023/12/26 00:13:23;;;;;;;79.40;52.77;;;8.40;99.90;;;;;;6336676;22;20287;-68
2023/12/26 00:15:50;;;;;;;79.87;52.10;;;8.40;99.90;;;;;;6361115;22;20339;-69
2023/12/26 00:18:17;;;;;;;72.57;49.07;;;8.40;99.90;;;;;;6370491;22;20006;-69
2023/12/26 00:20:43;;;;;;;76.57;52.13;;;8.40;99.90;;;;;;6370495;22;20036;-69
2023/12/26 00:23:13;;;;;;;73.90;51.97;;;8.40;99.90;;;;;;6370754;22;20002;-69
2023/12/26 00:25:39;;;;;;;74.87;51.97;;;8.40;99.90;;;;;;6370447;22;19994;-69
2023/12/26 00:28:05;;;;;;;71.97;50.93;;;8.30;99.90;;;;;;6370460;22;20017;-68
2023/12/26 00:30:31;;;;;;;77.13;50.37;;;8.40;99.90;;;;;;6370619;22;20324;-68
2023/12/26 00:32:57;;;;;;;69.80;48.60;;;8.30;99.90;;;;;;6370026;22;20011;-69
2023/12/26 00:35:23;;;;;;;70.10;49.07;;;8.30;99.90;;;;;;6370274;22;20005;-69
2023/12/26 00:37:48;;;;;;;72.07;48.30;;;8.30;99.90;;;;;;6370032;22;20002;-69
2023/12/26 00:40:15;;;;;;;68.97;48.83;;;8.30;99.90;;;;;;6370680;22;19994;-68
2023/12/26 00:42:43;;;;;;;69.70;48.63;;;8.30;99.90;;;;;;6370490;22;20081;-69
2023/12/26 00:45:09;;;;;;;74.43;50.10;;;8.30;99.90;;;;;;6369951;22;20408;-68
2023/12/26 00:47:35;;;;;;;69.20;49.00;;;8.30;99.90;;;;;;6370082;22;20015;-68
2023/12/26 00:50:01;;;;;;;75.37;49.30;;;8.30;99.90;;;;;;6370197;22;20007;-68
2023/12/26 00:52:27;;;;;;;73.30;48.90;;;8.30;99.90;;;;;;6370639;22;20007;-68
2023/12/26 00:54:53;;;;;;;73.53;48.57;;;8.30;99.90;;;;;;6370176;22;20000;-69
2023/12/26 00:57:18;;;;;;;73.60;48.87;;;8.30;99.90;;;;;;6370216;22;20026;-68
2023/12/26 00:59:46;;;;;;;66.83;46.53;;;8.30;99.90;;;;;;6370393;22;20047;-68
2023/12/26 01:02:11;;;;;;;71.33;45.90;;;8.30;99.90;;;;;;6370214;22;20002;-68
2023/12/26 01:04:37;;;;;;;73.80;47.37;;;8.30;99.90;;;;;;6368367;22;20002;-68
2023/12/26 01:07:04;;;;;;;68.83;45.07;;;8.30;99.90;;;;;;6369164;22;20006;-69
2023/12/26 01:09:30;;;;;;;67.10;44.20;;;8.30;99.90;;;;;;6370041;22;20421;-68
2023/12/26 01:11:56;;;;;;;69.93;46.53;;;8.30;99.90;;;;;;6370320;22;20002;-69
2023/12/26 01:14:22;;;;;;;72.03;45.87;;;8.30;99.90;;;;;;6371119;22;19994;-69
2023/12/26 01:16:48;;;;;;;61.70;42.30;;;8.30;99.90;;;;;;6370857;22;19995;-68
2023/12/26 01:19:14;;;;;;;62.53;40.80;;;8.30;99.90;;;;;;6370290;22;20443;-69
2023/12/26 01:22:09;;;;;;;69.83;40.57;;;8.30;99.90;;;;;;6370228;22;20316;-69
2023/12/26 01:39:28;;;;;;;;;;;;;;;;;;;;;
2023/12/26 01:41:54;;;;;;;62.13;42.20;;;8.20;99.90;;;;;;6008009;23;20091;-68
2023/12/26 01:45:28;;;;;;;63.53;43.40;;;8.20;99.90;;;;;;6119861;23;20006;-68
2023/12/26 01:47:57;;;;;;;65.30;41.72;;;8.20;99.90;;;;;;6068546;23;20012;-70
2023/12/26 01:50:24;;;;;;;63.37;41.27;;;8.10;99.90;;;;;;6328255;22;20391;-68
2023/12/26 01:52:50;;;;;;;59.67;40.43;;;8.10;99.90;;;;;;6338620;22;20526;-68
2023/12/26 01:55:17;;;;;;;59.97;38.93;;;8.10;99.90;;;;;;6338476;22;20006;-68
2023/12/26 01:57:44;;;;;;;59.27;39.93;;;8.10;99.90;;;;;;6338264;22;20014;-68
2023/12/26 02:00:10;;;;;;;63.30;39.63;;;8.20;99.90;;;;;;6338027;22;20002;-69
2023/12/26 02:02:38;;;;;;;61.53;40.87;;;8.20;99.90;;;;;;6337939;22;20003;-68
2023/12/26 02:05:04;;;;;;;60.37;39.90;;;8.20;99.90;;;;;;6338339;22;20003;-70
2023/12/26 02:07:30;;;;;;;61.20;38.20;;;8.20;99.90;;;;;;6338078;22;20387;-70
2023/12/26 02:09:56;;;;;;;59.60;39.07;;;8.20;99.90;;;;;;6338146;22;20006;-68
2023/12/26 02:12:22;;;;;;;58.90;39.07;;;8.20;99.90;;;;;;6337949;22;19998;-68
2023/12/26 02:14:48;;;;;;;61.83;39.73;;;8.20;99.90;;;;;;6338133;22;20028;-68
2023/12/26 02:17:23;;;;;;;60.50;39.10;;;8.20;99.90;;;;;;6338155;22;20331;-68
2023/12/26 02:19:49;;;;;;;63.73;40.90;;;8.20;99.90;;;;;;6338472;22;20017;-68
2023/12/26 02:22:15;;;;;;;58.20;38.73;;;8.30;99.90;;;;;;6338062;22;19995;-68
2023/12/26 02:24:42;;;;;;;68.40;40.93;;;8.30;99.90;;;;;;6338159;22;20002;-68
2023/12/26 02:27:26;;;;;;;60.43;41.23;;;8.30;99.90;;;;;;6337985;22;20018;-68
2023/12/26 02:29:53;;;;;;;56.47;39.20;;;8.30;99.90;;;;;;6338250;22;20060;-68
2023/12/26 02:32:22;;;;;;;64.40;40.27;;;8.30;99.90;;;;;;6337573;22;19999;-68
2023/12/26 02:34:50;;;;;;;60.87;40.30;;;8.30;99.90;;;;;;6337975;22;20435;-68
2023/12/26 02:37:16;;;;;;;56.87;38.90;;;8.30;99.90;;;;;;6362436;22;20447;-68
2023/12/26 02:39:44;;;;;;;59.63;40.73;;;8.30;99.90;;;;;;6369430;22;19998;-68
2023/12/26 02:42:17;;;;;;;59.00;41.07;;;8.30;99.90;;;;;;6369335;22;20361;-68
2023/12/26 02:44:43;;;;;;;63.00;39.70;;;8.30;99.90;;;;;;6369688;22;20023;-68
2023/12/26 02:47:09;;;;;;;63.80;39.20;;;8.30;99.90;;;;;;6371705;22;20013;-68
2023/12/26 02:49:35;;;;;;;58.27;40.10;;;8.30;99.90;;;;;;6372147;22;20440;-68
2023/12/26 02:52:03;;;;;;;61.47;39.67;;;8.30;99.90;;;;;;6372292;22;19998;-68
2023/12/26 02:54:28;;;;;;;58.43;39.30;;;8.30;99.90;;;;;;6372071;22;19998;-68
2023/12/26 02:56:57;;;;;;;57.37;40.70;;;8.30;99.90;;;;;;6371812;22;20073;-68
2023/12/26 02:59:57;;;;;;;;;;;;;;;;;;;;;
2023/12/26 03:19:31;;;;;;;58.17;39.63;;;8.40;99.90;;;;;;6183970;23;20012;-70
2023/12/26 03:22:24;;;;;;;64.13;39.60;;;8.40;99.90;;;;;;6184071;23;20016;-68
2023/12/26 03:24:50;;;;;;;63.83;39.80;;;8.40;99.90;;;;;;6274493;22;20004;-68
2023/12/26 03:27:16;;;;;;;65.43;39.50;;;8.40;99.90;;;;;;6354872;22;20340;-68
2023/12/26 03:29:42;;;;;;;64.20;39.53;;;8.40;99.90;;;;;;6370954;22;20320;-68
2023/12/26 03:32:09;;;;;;;59.93;39.00;;;8.40;99.90;;;;;;6370646;22;20228;-68
2023/12/26 03:34:37;;;;;;;57.10;36.97;;;8.40;99.90;;;;;;6371066;22;20002;-68
2023/12/26 03:37:03;;;;;;;57.43;37.13;;;8.50;99.90;;;;;;6370770;22;20010;-68
2023/12/26 03:39:29;;;;;;;56.13;36.87;;;8.50;99.90;;;;;;6371088;22;20389;-68
2023/12/26 03:41:55;;;;;;;60.27;37.50;;;8.50;99.90;;;;;;6371211;22;20038;-68
2023/12/26 03:44:20;;;;;;;57.77;38.90;;;8.50;99.90;;;;;;6370890;22;19998;-68
2023/12/26 03:46:46;;;;;;;65.33;37.10;;;8.50;99.90;;;;;;6370705;22;19998;-68
2023/12/26 03:49:12;;;;;;;57.30;37.20;;;8.50;99.90;;;;;;6370911;22;20026;-68
2023/12/26 03:51:38;;;;;;;60.13;38.57;;;8.50;99.90;;;;;;6370718;22;20002;-68
2023/12/26 03:54:04;;;;;;;56.20;37.93;;;8.50;99.90;;;;;;6370791;22;19998;-68
2023/12/26 03:56:30;;;;;;;57.53;36.93;;;8.50;99.90;;;;;;6370178;22;20051;-68
2023/12/26 03:58:57;;;;;;;52.70;36.90;;;8.40;99.90;;;;;;6370387;22;20328;-68
2023/12/26 04:01:23;;;;;;;57.63;37.67;;;8.50;99.90;;;;;;6369261;22;20007;-68
2023/12/26 04:03:49;;;;;;;53.60;37.33;;;8.50;99.90;;;;;;6370968;22;20417;-68
2023/12/26 04:06:15;;;;;;;49.93;35.47;;;8.50;99.90;;;;;;6370284;22;20417;-68
2023/12/26 04:08:41;;;;;;;56.13;39.20;;;8.50;99.90;;;;;;6370809;22;20015;-68
2023/12/26 04:11:09;;;;;;;59.57;38.87;;;8.50;99.90;;;;;;6370543;22;19998;-68
2023/12/26 04:13:35;;;;;;;55.03;38.40;;;8.50;99.90;;;;;;6370667;22;19998;-68
2023/12/26 04:16:01;;;;;;;55.67;37.67;;;8.50;99.90;;;;;;6370389;22;20073;-68
2023/12/26 04:18:27;;;;;;;54.17;36.80;;;8.50;99.90;;;;;;6370196;22;19998;-68
2023/12/26 04:20:52;;;;;;;56.57;36.90;;;8.50;99.90;;;;;;6368712;22;19999;-68
2023/12/26 04:23:18;;;;;;;55.80;38.30;;;8.50;99.90;;;;;;6370491;22;20024;-68
2023/12/26 04:25:44;;;;;;;56.47;36.80;;;8.50;99.90;;;;;;6370865;22;20320;-68
2023/12/26 04:28:10;;;;;;;52.97;34.73;;;8.50;99.90;;;;;;6370891;22;20017;-68
2023/12/26 04:30:36;;;;;;;50.23;34.57;;;8.50;99.90;;;;;;6371541;22;20002;-68
2023/12/26 04:33:03;;;;;;;48.00;33.37;;;8.50;99.90;;;;;;6371257;22;20002;-68
2023/12/26 04:35:29;;;;;;;57.67;33.30;;;8.50;99.90;;;;;;6370654;22;20062;-68
2023/12/26 04:37:55;;;;;;;51.23;34.30;;;8.50;99.90;;;;;;6370687;22;20006;-68
2023/12/26 04:41:17;;;;;;;53.57;32.70;;;8.50;99.90;;;;;;6370580;22;20336;-68
2023/12/26 04:44:29;;;;;;;51.57;33.93;;;8.50;99.90;;;;;;6273708;22;20007;-68
2023/12/26 04:54:37;;;;;;;54.13;34.13;;;8.40;99.90;;;;;;6183394;23;20092;-70
2023/12/26 05:04:10;;;;;;;51.83;33.33;;;8.40;99.90;;;;;;6007053;23;20191;-70
2023/12/26 05:06:37;;;;;;;58.70;35.30;;;8.40;99.90;;;;;;6107186;22;20400;-70
2023/12/26 05:09:03;;;;;;;46.30;33.13;;;8.40;99.90;;;;;;6325825;22;20406;-70
2023/12/26 05:11:29;;;;;;;46.13;31.70;;;8.40;99.90;;;;;;6370383;22;20324;-70
2023/12/26 05:13:55;;;;;;;50.40;32.37;;;8.40;99.90;;;;;;6370309;22;20366;-70
2023/12/26 05:16:21;;;;;;;48.50;30.93;;;8.40;99.90;;;;;;6369803;22;19999;-70
2023/12/26 05:18:47;;;;;;;50.23;31.47;;;8.40;99.90;;;;;;6370138;22;19994;-70
2023/12/26 05:21:20;;;;;;;45.37;29.50;;;8.40;99.90;;;;;;6368414;22;20325;-70
2023/12/26 05:23:46;;;;;;;43.40;30.70;;;8.40;99.90;;;;;;6369838;22;20317;-70
2023/12/26 05:26:13;;;;;;;49.40;30.40;;;8.40;99.90;;;;;;6369649;22;20209;-70
2023/12/26 05:28:39;;;;;;;43.57;29.97;;;8.40;99.90;;;;;;6368247;22;20006;-70
2023/12/26 05:31:05;;;;;;;44.90;28.70;;;8.40;99.90;;;;;;6369374;22;19995;-70
2023/12/26 05:33:32;;;;;;;41.43;28.70;;;8.40;99.90;;;;;;6370169;22;20071;-70
2023/12/26 05:35:59;;;;;;;41.13;29.50;;;8.40;99.90;;;;;;6369508;22;20454;-70
2023/12/26 05:38:25;;;;;;;43.57;29.57;;;8.30;99.90;;;;;;6369772;22;20003;-70
2023/12/26 05:40:50;;;;;;;46.00;29.53;;;8.40;99.90;;;;;;6369849;22;20079;-70
2023/12/26 05:43:16;;;;;;;47.07;29.77;;;8.40;99.90;;;;;;6368388;22;20005;-70
2023/12/26 05:45:42;;;;;;;40.43;28.97;;;8.30;99.90;;;;;;6369470;22;20028;-70
2023/12/26 05:48:08;;;;;;;42.40;29.37;;;8.30;99.90;;;;;;6369413;22;20060;-70
2023/12/26 05:50:34;;;;;;;45.53;28.73;;;8.30;99.90;;;;;;6368736;22;19998;-70
2023/12/26 05:53:01;;;;;;;45.73;29.80;;;8.30;99.90;;;;;;6368998;22;20002;-70
2023/12/26 05:55:26;;;;;;;52.13;30.97;;;8.30;99.90;;;;;;6369311;22;20002;-70
2023/12/26 05:57:52;;;;;;;58.30;35.13;;;8.30;99.90;;;;;;6369568;22;20029;-70
2023/12/26 06:00:18;;;;;;;63.80;36.97;;;8.30;99.90;;;;;;6369280;22;19998;-70
2023/12/26 06:02:44;;;;;;;64.00;36.73;;;8.30;99.90;;;;;;6369633;22;20074;-70
2023/12/26 06:05:10;;;;;;;59.90;35.30;;;8.30;99.90;;;;;;6369973;22;20022;-70
2023/12/26 06:07:36;;;;;;;70.53;39.37;;;8.30;99.90;;;;;;6370354;22;20525;-70
2023/12/26 06:10:02;;;;;;;67.70;40.70;;;8.30;99.90;;;;;;6368983;22;20008;-70
2023/12/26 06:12:28;;;;;;;72.23;40.10;;;8.30;99.90;;;;;;6370408;22;19998;-70
2023/12/26 06:14:54;;;;;;;75.37;42.23;;;8.30;99.90;;;;;;6370496;22;20025;-70
2023/12/26 06:31:02;;;;;;;49.97;31.13;;;8.30;99.90;;;;;;6096234;23;20011;-72
2023/12/26 06:44:15;;;;;;;;;;;;;;;;;;;;;
2023/12/26 06:46:42;;;;;;;46.77;27.97;;;8.30;99.90;;;;;;6104638;23;20089;-72
2023/12/26 06:49:09;;;;;;;41.83;27.47;;;8.30;99.90;;;;;;6324826;22;20003;-71
2023/12/26 06:51:39;;;;;;;49.53;30.17;;;8.30;99.90;;;;;;6339702;22;19999;-71
2023/12/26 06:54:05;;;;;;;45.83;30.00;;;8.30;99.90;;;;;;6339277;22;20286;-73
2023/12/26 06:56:31;;;;;;;47.80;28.90;;;8.40;99.90;;;;;;6340002;22;20003;-74
2023/12/26 06:58:58;;;;;;;52.13;31.93;;;8.30;99.90;;;;;;6339847;22;19995;-72
2023/12/26 07:01:24;;;;;;;43.93;28.80;;;8.30;99.90;;;;;;6339776;22;20082;-71
2023/12/26 07:03:50;;;;;;;49.03;29.20;;;8.40;99.90;;;;;;6338965;22;20316;-71
2023/12/26 07:06:16;;;;;;;42.23;28.43;;;8.40;99.90;;;;;;6338628;22;20030;-72
2023/12/26 07:08:42;;;;;;;44.20;29.27;;;8.40;99.90;;;;;;6338694;22;20003;-68
2023/12/26 07:11:07;;;;;;;44.30;29.07;;;8.40;99.90;;;;;;6338760;22;20002;-74
2023/12/26 07:13:33;;;;;;;43.93;28.13;;;8.40;99.90;;;;;;6339258;22;20010;-71
2023/12/26 07:15:59;;;;;;;43.33;28.43;;;8.40;99.90;;;;;;6339608;22;20014;-72
2023/12/26 07:18:25;;;;;;;42.00;27.03;;;8.30;99.90;;;;;;6339553;22;19995;-72
2023/12/26 07:20:51;;;;;;;40.13;26.60;;;8.30;99.90;;;;;;6340149;22;20007;-73
2023/12/26 07:23:16;;;;;;;41.57;26.80;;;8.40;99.90;;;;;;6339424;22;20002;-76
2023/12/26 07:25:42;;;;;;;39.30;26.13;;;8.40;99.90;;;;;;6339670;22;20006;-72
2023/12/26 07:28:10;;;;;;;38.83;26.63;;;8.30;99.90;;;;;;6339279;22;20079;-72
2023/12/26 07:30:38;;;;;;;45.00;27.63;;;8.30;99.90;;;;;;6339183;22;19998;-70
2023/12/26 07:33:04;;;;;;;42.97;26.60;;;8.30;99.90;;;;;;6339699;22;20006;-73
2023/12/26 07:35:30;;;;;;;46.17;26.73;;;8.40;99.90;;;;;;6338786;22;20003;-73
2023/12/26 07:37:56;;;;;;;48.67;27.67;;;8.40;99.90;;;;;;6350567;22;20348;-71
2023/12/26 07:40:22;;;;;;;44.87;27.57;;;8.40;99.90;;;;;;6371076;22;20085;-70
2023/12/26 07:42:48;;;;;;;40.50;27.37;;;8.30;99.90;;;;;;6366974;22;20006;-76
2023/12/26 07:45:14;;;;;;;40.53;25.30;;;8.30;99.90;;;;;;6367782;22;20047;-75
2023/12/26 07:47:39;;;;;;;36.17;24.93;;;8.40;99.90;;;;;;6367128;22;20463;-73
2023/12/26 07:50:06;;;;;;;39.53;25.90;;;8.40;99.90;;;;;;6371160;22;20428;-73
2023/12/26 07:52:32;;;;;;;42.83;26.90;;;8.40;99.90;;;;;;6371659;22;20003;-73
2023/12/26 07:54:57;;;;;;;45.97;26.90;;;8.40;99.90;;;;;;6370044;22;20075;-73
2023/12/26 07:57:23;;;;;;;45.13;26.20;;;8.40;99.90;;;;;;6371408;22;20320;-74
2023/12/26 08:00:38;;;;;;;40.83;26.80;;;8.40;99.90;;;;;;6370838;22;19998;-78
2023/12/26 08:06:41;;;;;;;37.38;24.25;;;8.40;99.90;;;;;;6368711;22;20520;-73
2023/12/26 08:15:48;;;;;;;34.87;25.07;;;8.50;99.90;;;;;;6183089;23;20020;-78
2023/12/26 08:19:02;;;;;;;38.33;25.87;;;8.50;99.90;;;;;;6234878;23;20004;-78
2023/12/26 08:22:04;;;;;;;;;;;8.40;99.90;;;;;;6174786;23;20004;-76
2023/12/26 08:24:46;;;;;;;43.37;28.57;;;8.50;99.90;;;;;;6359285;22;20259;-73
2023/12/26 08:27:12;;;;;;;46.33;27.73;;;8.50;99.90;;;;;;6370100;22;20047;-72
2023/12/26 08:29:38;;;;;;;46.57;27.17;;;8.50;99.90;;;;;;6370542;22;19994;-75
2023/12/26 08:32:04;;;;;;;37.90;26.03;;;8.50;99.90;;;;;;6367813;22;20007;-78
2023/12/26 08:34:30;;;;;;;41.47;26.43;;;8.50;99.90;;;;;;6369841;22;20009;-76
2023/12/26 08:36:55;;;;;;;40.77;26.07;;;8.60;99.90;;;;;;6370556;22;20324;-73
2023/12/26 08:39:21;;;;;;;43.20;27.27;;;8.50;99.90;;;;;;6369628;22;20097;-72
2023/12/26 08:41:47;;;;;;;44.37;29.77;;;8.60;99.90;;;;;;6370193;22;20359;-71
2023/12/26 08:44:13;;;;;;;47.87;29.73;;;8.60;99.90;;;;;;6370102;22;19994;-73
2023/12/26 08:46:39;;;;;;;41.97;27.63;;;8.60;99.90;;;;;;6369532;22;20030;-74
2023/12/26 08:49:05;;;;;;;42.57;28.40;;;8.60;99.90;;;;;;6368848;22;20071;-73
2023/12/26 08:51:31;;;;;;;44.27;28.17;;;8.60;99.90;;;;;;6370088;22;19994;-74
2023/12/26 08:53:57;;;;;;;47.93;31.80;;;8.70;99.90;;;;;;6370104;22;20025;-72
2023/12/26 08:56:26;;;;;;;49.13;33.60;;;8.70;99.90;;;;;;6369761;22;20002;-76
2023/12/26 08:58:52;;;;;;;50.83;33.13;;;8.70;99.90;;;;;;6369886;22;20444;-73
2023/12/26 09:01:17;;;;;;;50.40;32.77;;;8.80;99.90;;;;;;6369827;22;19998;-70
2023/12/26 09:03:43;;;;;;;51.33;33.03;;;8.80;99.90;;;;;;6370064;22;20009;-73
2023/12/26 09:06:12;;;;;;;48.80;32.93;;;8.80;99.90;;;;;;6368189;22;20081;-70
2023/12/26 09:08:38;;;;;;;51.33;33.80;;;8.80;99.90;;;;;;6368608;22;20006;-70
2023/12/26 09:11:04;;;;;;;52.53;34.33;;;8.80;99.90;;;;;;6368704;22;20006;-70
2023/12/26 09:13:29;;;;;;;52.53;33.03;;;8.80;99.90;;;;;;6368807;22;19998;-70
2023/12/26 09:15:58;;;;;;;62.97;34.70;;;8.90;99.90;;;;;;6368376;22;19999;-70
2023/12/26 09:18:23;;;;;;;50.17;32.57;;;8.80;99.90;;;;;;6366597;22;20480;-71
2023/12/26 09:20:49;;;;;;;55.73;34.37;;;8.90;99.90;;;;;;6368454;22;19998;-75
2023/12/26 09:23:15;;;;;;;55.77;36.70;;;8.90;99.90;;;;;;6370776;22;20424;-73
2023/12/26 09:25:41;;;;;;;52.07;34.47;;;8.90;99.90;;;;;;6369054;22;20451;-75
2023/12/26 09:28:32;;;;;;;45.23;33.27;;;8.90;99.90;;;;;;6381251;22;20022;-75
2023/12/26 09:52:10;;;;;;;52.53;32.17;;;8.90;99.90;;;;;;5975464;23;20011;-76
2023/12/26 09:54:38;;;;;;;48.63;30.47;;;8.90;99.90;;;;;;6103899;23;20421;-76
2023/12/26 09:57:08;;;;;;;46.67;26.80;;;8.90;99.90;;;;;;6242624;23;20000;-76
2023/12/26 09:59:37;;;;;;;45.03;26.43;;;8.90;99.90;;;;;;6401721;22;20006;-76
2023/12/26 10:02:04;;;;;;;46.50;25.90;;;8.90;99.90;;;;;;6400947;22;20001;-76
2023/12/26 10:04:30;;;;;;;37.27;25.90;;;8.90;99.90;;;;;;6401466;22;19998;-76
2023/12/26 10:06:56;;;;;;;43.73;27.90;;;9.00;99.90;;;;;;6401043;22;20054;-75
2023/12/26 10:09:22;;;;;;;44.43;28.50;;;8.90;99.90;;;;;;6372704;22;20002;-76
2023/12/26 10:11:48;;;;;;;44.93;26.30;;;8.90;99.90;;;;;;6401134;22;19998;-75
2023/12/26 10:14:29;;;;;;;43.90;26.50;;;8.90;99.90;;;;;;6401012;22;20002;-76
2023/12/26 10:16:59;;;;;;;41.47;25.33;;;9.00;99.90;;;;;;6371429;22;20325;-76
2023/12/26 10:19:25;;;;;;;40.07;25.40;;;9.00;99.90;;;;;;6397427;22;19998;-74
2023/12/26 10:21:54;;;;;;;38.73;25.33;;;9.00;99.90;;;;;;6398353;22;20281;-75
2023/12/26 10:24:20;;;;;;;39.47;25.73;;;9.00;99.90;;;;;;6401454;22;20328;-75
2023/12/26 10:26:47;;;;;;;41.43;27.40;;;9.00;99.90;;;;;;6401472;22;20006;-75
2023/12/26 10:29:14;;;;;;;37.63;25.27;;;9.00;99.90;;;;;;6401704;22;20066;-75
2023/12/26 10:31:41;;;;;;;41.93;25.80;;;9.00;99.90;;;;;;6401324;22;20323;-75
2023/12/26 10:34:19;;;;;;;36.67;25.43;;;9.00;99.90;;;;;;6401184;22;20013;-75
2023/12/26 10:36:46;;;;;;;43.13;27.93;;;9.00;99.90;;;;;;6401808;22;20002;-75
2023/12/26 10:39:13;;;;;;;39.60;26.80;;;9.10;99.90;;;;;;6401786;22;19997;-75
2023/12/26 10:41:44;;;;;;;45.53;27.70;;;9.10;99.90;;;;;;6401171;22;19998;-74
2023/12/26 10:44:10;;;;;;;47.40;29.60;;;9.10;99.90;;;;;;6372780;22;20059;-74
2023/12/26 10:46:36;;;;;;;46.47;27.23;;;9.10;99.90;;;;;;6401861;22;20002;-74
2023/12/26 10:49:04;;;;;;;42.23;26.10;;;9.10;99.90;;;;;;6401763;22;19998;-75
2023/12/26 10:51:31;;;;;;;39.20;26.37;;;9.10;99.90;;;;;;6401922;22;20005;-75
2023/12/26 10:54:05;;;;;;;44.90;25.83;;;9.20;99.90;;;;;;6402446;22;20338;-72
2023/12/26 10:56:33;;;;;;;39.30;26.17;;;9.20;99.90;;;;;;6402181;22;19998;-75
2023/12/26 10:59:00;;;;;;;38.73;25.37;;;9.20;99.90;;;;;;6402122;22;20101;-75
2023/12/26 11:01:39;;;;;;;43.13;27.43;;;9.20;99.90;;;;;;6402140;22;20004;-75
2023/12/26 11:04:06;;;;;;;40.63;28.17;;;9.20;99.90;;;;;;6401831;22;19998;-72
2023/12/26 11:06:55;;;;;;;41.40;27.67;;;9.20;99.90;;;;;;6402465;22;20020;-74
2023/12/26 11:10:26;;;;;;;48.33;29.30;;;9.30;99.90;;;;;;6306779;22;20349;-74
2023/12/26 11:16:42;;;;;;;41.87;28.57;;;9.30;99.90;;;;;;6214342;23;20036;-75
2023/12/26 11:26:32;;;;;;;42.80;28.10;;;9.20;99.90;;;;;;6098151;23;20026;-73
2023/12/26 11:29:01;;;;;;;41.73;28.40;;;9.30;99.90;;;;;;6203806;22;20365;-74
2023/12/26 11:31:27;;;;;;;43.60;28.67;;;9.30;99.90;;;;;;6274921;22;20019;-74
2023/12/26 11:33:53;;;;;;;53.37;29.43;;;9.30;99.90;;;;;;6355440;22;20331;-74
2023/12/26 11:36:19;;;;;;;48.13;28.90;;;9.30;99.90;;;;;;6403494;22;20323;-74
2023/12/26 11:38:45;;;;;;;43.37;29.47;;;9.30;99.90;;;;;;6402831;22;19993;-74
2023/12/26 11:41:12;;;;;;;45.20;27.50;;;9.30;99.90;;;;;;6403034;22;20042;-74
2023/12/26 11:43:39;;;;;;;45.93;27.90;;;9.30;99.90;;;;;;6402961;22;19994;-73
2023/12/26 11:46:04;;;;;;;46.47;27.53;;;9.30;99.90;;;;;;6402378;22;20350;-76
2023/12/26 11:48:31;;;;;;;43.40;27.93;;;9.30;99.90;;;;;;6396959;22;20075;-75
2023/12/26 11:50:56;;;;;;;43.13;26.43;;;9.30;99.90;;;;;;6397179;22;20006;-75
2023/12/26 11:53:22;;;;;;;42.00;25.23;;;9.30;99.90;;;;;;6398441;22;20002;-74
2023/12/26 11:55:48;;;;;;;42.70;26.20;;;9.30;99.90;;;;;;6402462;22;20023;-74
2023/12/26 11:58:14;;;;;;;46.67;25.83;;;9.40;99.90;;;;;;6402001;22;20046;-73
2023/12/26 12:00:40;;;;;;;42.37;25.10;;;9.40;99.90;;;;;;6401996;22;19997;-74
2023/12/26 12:03:06;;;;;;;44.27;24.33;;;9.40;99.90;;;;;;6402038;22;19997;-74
2023/12/26 12:05:31;;;;;;;36.10;23.10;;;9.40;99.90;;;;;;6402892;22;20001;-73
2023/12/26 12:08:13;;;;;;;41.07;22.40;;;9.40;99.90;;;;;;6375058;22;20020;-73
2023/12/26 12:11:08;;;;;;;40.00;23.63;;;9.40;99.90;;;;;;6402583;22;20415;-74
2023/12/26 12:13:34;;;;;;;48.93;27.20;;;9.40;99.90;;;;;;6401895;22;20005;-70
2023/12/26 12:16:00;;;;;;;48.27;26.93;;;9.40;99.90;;;;;;6398742;22;20068;-71
2023/12/26 12:18:25;;;;;;;38.77;24.17;;;9.40;99.90;;;;;;6380156;22;20029;-74
2023/12/26 12:20:51;;;;;;;42.53;26.57;;;9.40;99.90;;;;;;6306441;22;20000;-71
2023/12/26 12:23:17;;;;;;;44.17;25.63;;;9.50;99.90;;;;;;6307451;22;20010;-74
2023/12/26 12:25:43;;;;;;;46.90;30.87;;;9.50;99.90;;;;;;6307341;22;19999;-74
2023/12/26 12:28:12;;;;;;;52.17;32.43;;;9.40;99.90;;;;;;6308125;22;20011;-74
2023/12/26 12:30:37;;;;;;;73.40;47.60;;;9.50;99.90;;;;;;6308693;22;19999;-75
2023/12/26 12:33:22;;;;;;;62.07;39.60;;;9.50;99.90;;;;;;6308572;22;20448;-75
2023/12/26 12:35:48;;;;;;;70.57;43.33;;;9.50;99.90;;;;;;6308605;22;20022;-74
2023/12/26 12:38:16;;;;;;;180.60;128.07;;;9.50;99.90;;;;;;6308616;22;20004;-74
2023/12/26 12:52:11;;;;;;;52.37;29.83;;;9.60;99.90;;;;;;6183553;23;20015;-75
2023/12/26 12:58:50;;;;;;;49.13;27.67;;;9.60;99.90;;;;;;6033331;23;20018;-73
2023/12/26 13:04:24;;;;;;;59.63;39.63;;;9.60;99.90;;;;;;6036204;23;20043;-74
2023/12/26 13:06:50;;;;;;;62.50;45.60;;;9.60;99.90;;;;;;6153161;23;20080;-75
2023/12/26 13:09:16;;;;;;;59.73;44.63;;;9.60;99.90;;;;;;6230666;22;20311;-74
2023/12/26 13:11:42;;;;;;;54.73;37.33;;;9.60;99.90;;;;;;6276573;22;20325;-74
2023/12/26 13:14:16;;;;;;;54.07;32.10;;;9.60;99.90;;;;;;6276997;22;20004;-74
2023/12/26 13:16:42;;;;;;;53.70;30.92;;;9.70;99.90;;;;;;6276338;22;20004;-74
2023/12/26 13:19:10;;;;;;;47.67;30.27;;;9.70;99.90;;;;;;6276307;22;20010;-75
2023/12/26 13:21:36;;;;;;;47.97;30.70;;;9.70;99.90;;;;;;6276345;22;20380;-74
2023/12/26 13:24:02;;;;;;;52.55;30.65;;;9.70;99.90;;;;;;6276287;22;20000;-74
2023/12/26 13:26:37;;;;;;;52.00;30.87;;;9.70;99.90;;;;;;6276015;22;20026;-75
2023/12/26 13:29:06;;;;;;;48.73;28.43;;;9.70;99.90;;;;;;6275582;22;20461;-74
2023/12/26 13:31:32;;;;;;;49.55;30.48;;;9.70;99.90;;;;;;6276109;22;20004;-74
2023/12/26 13:33:58;;;;;;;55.10;31.23;;;9.70;99.90;;;;;;6276233;22;20088;-74
2023/12/26 13:36:24;;;;;;;53.77;33.97;;;9.70;99.90;;;;;;6275984;22;20007;-74
2023/12/26 13:38:49;;;;;;;56.97;32.42;;;9.80;99.90;;;;;;6276096;22;20018;-74
2023/12/26 13:41:15;;;;;;;50.53;31.55;;;9.70;99.90;;;;;;6276023;22;20091;-74
2023/12/26 13:43:41;;;;;;;46.15;30.75;;;9.70;99.90;;;;;;6276732;22;20023;-74
2023/12/26 13:46:07;;;;;;;57.30;34.03;;;9.80;99.90;;;;;;6276146;22;20008;-74
2023/12/26 13:48:32;;;;;;;52.42;32.92;;;9.80;99.90;;;;;;6273289;22;20012;-74
2023/12/26 13:50:58;;;;;;;55.23;33.57;;;9.80;99.90;;;;;;6273219;22;20000;-74
2023/12/26 13:53:24;;;;;;;55.20;35.40;;;9.80;99.90;;;;;;6274525;22;20026;-74
2023/12/26 13:55:50;;;;;;;57.37;33.53;;;9.80;99.90;;;;;;6276596;22;20006;-74
2023/12/26 13:58:15;;;;;;;52.40;31.77;;;9.80;99.90;;;;;;6249112;22;20008;-74
2023/12/26 14:00:41;;;;;;;54.20;33.70;;;9.80;99.90;;;;;;6275992;22;20027;-74
2023/12/26 14:03:07;;;;;;;53.57;31.93;;;9.80;99.90;;;;;;6276033;22;20079;-74
2023/12/26 14:05:34;;;;;;;49.13;30.27;;;9.80;99.90;;;;;;6275887;22;20023;-73
2023/12/26 14:08:00;;;;;;;48.30;32.43;;;9.80;99.90;;;;;;6276495;22;20329;-74
2023/12/26 14:10:26;;;;;;;50.80;31.63;;;9.80;99.90;;;;;;6276521;22;20057;-74
2023/12/26 14:12:52;;;;;;;52.33;32.30;;;9.80;99.90;;;;;;6276543;22;19996;-74
2023/12/26 14:15:20;;;;;;;47.70;30.10;;;9.90;99.90;;;;;;6276274;22;19999;-73
2023/12/26 14:35:24;;;;;;;47.63;28.73;;;9.80;99.90;;;;;;6212603;23;20119;-74
2023/12/26 14:41:12;;;;;;;44.13;28.02;;;9.80;99.90;;;;;;6145382;23;20009;-74
2023/12/26 14:43:42;;;;;;;43.95;29.90;;;9.80;99.90;;;;;;6214459;23;20355;-75
2023/12/26 14:46:08;;;;;;;44.70;29.50;;;9.80;99.90;;;;;;6271835;22;20003;-76
2023/12/26 14:48:34;;;;;;;49.30;29.73;;;9.80;99.90;;;;;;6277564;22;20015;-75
2023/12/26 14:50:59;;;;;;;51.37;30.50;;;9.80;99.90;;;;;;6277967;22;19999;-72
2023/12/26 14:53:25;;;;;;;47.93;30.13;;;9.80;99.90;;;;;;6277889;22;20003;-75
2023/12/26 14:55:51;;;;;;;50.47;29.57;;;9.80;99.90;;;;;;6277636;22;20000;-74
2023/12/26 14:58:17;;;;;;;43.22;28.70;;;9.80;99.90;;;;;;6277603;22;20000;-74
2023/12/26 15:00:42;;;;;;;48.87;30.30;;;9.80;99.90;;;;;;6277837;22;20035;-74
2023/12/26 15:03:08;;;;;;;48.07;31.00;;;9.80;99.90;;;;;;6277121;22;20006;-74
2023/12/26 15:05:34;;;;;;;50.17;30.50;;;9.80;99.90;;;;;;6277449;22;20074;-75
2023/12/26 15:08:02;;;;;;;56.33;31.98;;;9.80;99.90;;;;;;6277283;22;20015;-75
2023/12/26 15:10:28;;;;;;;46.47;31.37;;;9.80;99.90;;;;;;6277549;22;20000;-75
2023/12/26 15:12:54;;;;;;;45.33;28.98;;;9.80;99.90;;;;;;6277764;22;20004;-74
2023/12/26 15:15:20;;;;;;;50.35;32.70;;;9.80;99.90;;;;;;6277493;22;20077;-74
2023/12/26 15:17:46;;;;;;;51.70;34.37;;;9.80;99.90;;;;;;6275704;22;19996;-74
2023/12/26 15:20:11;;;;;;;47.50;32.10;;;9.80;99.90;;;;;;6274245;22;20014;-75
2023/12/26 15:22:37;;;;;;;50.78;32.88;;;9.80;99.90;;;;;;6274327;22;20094;-74
2023/12/26 15:25:03;;;;;;;47.85;31.55;;;9.70;99.90;;;;;;6276189;22;19999;-76
2023/12/26 15:27:29;;;;;;;47.38;32.47;;;9.70;99.90;;;;;;6277408;22;20011;-76
2023/12/26 15:29:55;;;;;;;64.77;36.87;;;9.80;99.90;;;;;;6277645;22;20030;-74